createdAt,value
2017-05-31T00:01:49.427Z,18.39
2017-05-31T00:03:50.907Z,18.31
2017-05-31T00:05:52.538Z,18.31
2017-05-31T00:07:54.436Z,18.33
2017-05-31T00:09:56.388Z,18.40
2017-05-31T00:11:57.992Z,18.34
2017-05-31T00:13:59.454Z,18.37
2017-05-31T00:16:01.663Z,18.43
2017-05-31T00:18:03.569Z,18.33
2017-05-31T00:20:05.074Z,18.28
2017-05-31T00:22:06.543Z,18.31
2017-05-31T00:24:08.049Z,18.18
2017-05-31T00:26:10.313Z,18.17
2017-05-31T00:28:11.808Z,18.13
2017-05-31T00:30:13.302Z,18.10
2017-05-31T00:32:15.231Z,18.17
2017-05-31T00:34:16.717Z,18.21
2017-05-31T00:36:18.177Z,18.24
2017-05-31T00:38:20.193Z,18.15
2017-05-31T00:40:22.245Z,18.13
2017-05-31T00:42:24.215Z,18.19
2017-05-31T00:44:25.733Z,18.15
2017-05-31T00:46:27.193Z,18.07
2017-05-31T00:48:28.696Z,18.03
2017-05-31T00:50:30.714Z,18.02
2017-05-31T00:52:32.241Z,18.09
2017-05-31T00:54:34.300Z,18.12
2017-05-31T00:56:35.889Z,18.17
2017-05-31T00:58:37.531Z,18.22
2017-05-31T01:00:39.610Z,18.18
2017-05-31T01:02:41.714Z,18.21
2017-05-31T01:04:43.240Z,18.21
2017-05-31T01:06:45.350Z,18.17
2017-05-31T01:08:46.914Z,18.17
2017-05-31T01:10:48.981Z,18.10
2017-05-31T01:12:50.468Z,18.17
2017-05-31T01:14:52.122Z,18.07
2017-05-31T01:16:53.764Z,18.06
2017-05-31T01:18:55.214Z,17.92
2017-05-31T01:20:56.840Z,17.92
2017-05-31T01:22:58.857Z,17.82
2017-05-31T01:25:00.893Z,17.81
2017-05-31T01:27:03.034Z,17.81
2017-05-31T01:29:05.186Z,17.81
2017-05-31T01:31:06.851Z,17.89
2017-05-31T01:33:08.282Z,18.00
2017-05-31T01:35:09.890Z,17.99
2017-05-31T01:37:11.506Z,17.91
2017-05-31T01:39:12.978Z,17.82
2017-05-31T01:41:14.409Z,17.67
2017-05-31T01:43:15.840Z,17.69
2017-05-31T01:45:17.371Z,17.59
2017-05-31T01:47:18.797Z,17.76
2017-05-31T01:49:20.229Z,17.73
2017-05-31T01:51:21.659Z,17.69
2017-05-31T01:53:23.087Z,17.63
2017-05-31T01:55:24.870Z,17.69
2017-05-31T01:57:26.294Z,17.70
2017-05-31T01:59:27.717Z,17.66
2017-05-31T02:01:29.921Z,17.66
2017-05-31T02:03:32.107Z,17.63
2017-05-31T02:05:33.580Z,17.62
2017-05-31T02:07:35.171Z,17.62
2017-05-31T02:09:36.688Z,17.63
2017-05-31T02:11:38.161Z,17.66
2017-05-31T02:13:39.647Z,17.67
2017-05-31T02:15:41.099Z,17.69
2017-05-31T02:17:42.651Z,17.73
2017-05-31T02:19:44.928Z,17.67
2017-05-31T02:21:47.002Z,17.57
2017-05-31T02:23:48.595Z,17.53
2017-05-31T02:25:50.267Z,17.55
2017-05-31T02:27:52.186Z,17.44
2017-05-31T02:29:54.379Z,17.50
2017-05-31T02:31:56.567Z,17.46
2017-05-31T02:33:58.100Z,17.36
2017-05-31T02:35:59.588Z,17.47
2017-05-31T02:38:01.069Z,17.33
2017-05-31T02:40:02.529Z,17.35
2017-05-31T02:42:04.053Z,17.44
2017-05-31T02:44:05.597Z,17.36
2017-05-31T02:46:07.160Z,17.33
2017-05-31T02:48:08.721Z,17.41
2017-05-31T02:50:10.829Z,17.32
2017-05-31T02:52:13.130Z,17.40
2017-05-31T02:54:14.576Z,17.30
2017-05-31T02:56:16.723Z,17.26
2017-05-31T02:58:18.734Z,17.30
2017-05-31T03:00:20.699Z,17.14
2017-05-31T03:02:22.766Z,17.15
2017-05-31T03:04:24.804Z,17.08
2017-05-31T03:06:26.300Z,17.04
2017-05-31T03:08:28.567Z,17.08
2017-05-31T03:10:30.727Z,16.98
2017-05-31T03:12:32.878Z,17.15
2017-05-31T03:14:34.370Z,16.99
2017-05-31T03:16:35.813Z,16.92
2017-05-31T03:18:37.287Z,16.92
2017-05-31T03:20:38.758Z,16.90
2017-05-31T03:22:40.397Z,16.83
2017-05-31T03:24:41.885Z,16.96
2017-05-31T03:26:43.354Z,16.92
2017-05-31T03:28:44.848Z,16.90
2017-05-31T03:30:46.329Z,16.96
2017-05-31T03:32:48.155Z,16.95
2017-05-31T03:34:49.665Z,17.03
2017-05-31T03:36:51.152Z,16.95
2017-05-31T03:38:52.620Z,17.06
2017-05-31T03:40:55.743Z,17.06
2017-05-31T03:42:57.409Z,17.14
2017-05-31T03:44:58.865Z,17.11
2017-05-31T03:47:00.359Z,17.11
2017-05-31T03:49:01.785Z,17.14
2017-05-31T03:51:03.473Z,17.10
2017-05-31T03:53:04.986Z,17.08
2017-05-31T03:55:06.681Z,17.14
2017-05-31T03:57:08.152Z,17.10
2017-05-31T03:59:09.639Z,17.14
2017-05-31T04:01:11.344Z,17.15
2017-05-31T04:03:12.939Z,17.14
2017-05-31T04:05:15.119Z,17.15
2017-05-31T04:07:17.151Z,17.10
2017-05-31T04:09:18.660Z,17.14
2017-05-31T04:11:20.264Z,17.20
2017-05-31T04:13:22.447Z,17.13
2017-05-31T04:15:23.908Z,17.11
2017-05-31T04:17:25.459Z,17.10
2017-05-31T04:19:26.971Z,17.14
2017-05-31T04:21:29.080Z,17.13
2017-05-31T04:23:30.647Z,17.23
2017-05-31T04:25:32.114Z,17.17
2017-05-31T04:27:33.703Z,17.17
2017-05-31T04:29:35.923Z,17.26
2017-05-31T04:31:37.395Z,17.30
2017-05-31T04:33:38.894Z,17.26
2017-05-31T04:35:40.524Z,17.32
2017-05-31T04:37:42.022Z,17.28
2017-05-31T04:39:44.137Z,17.36
2017-05-31T04:41:45.687Z,17.44
2017-05-31T04:43:47.183Z,17.51
2017-05-31T04:45:48.660Z,17.57
2017-05-31T04:47:50.754Z,17.63
2017-05-31T04:49:52.746Z,17.64
2017-05-31T04:51:54.503Z,17.74
2017-05-31T04:53:56.500Z,17.74
2017-05-31T04:55:58.825Z,17.71
2017-05-31T04:58:00.187Z,17.76
2017-05-31T05:00:01.692Z,17.82
2017-05-31T05:02:03.153Z,17.85
2017-05-31T05:04:04.610Z,17.91
2017-05-31T05:06:06.040Z,17.89
2017-05-31T05:08:07.474Z,17.97
2017-05-31T05:10:08.905Z,18.02
2017-05-31T05:12:10.341Z,17.97
2017-05-31T05:14:11.772Z,17.92
2017-05-31T05:16:13.199Z,18.06
2017-05-31T05:18:14.632Z,18.06
2017-05-31T05:20:16.063Z,18.02
2017-05-31T05:22:17.518Z,18.00
2017-05-31T05:24:19.089Z,18.06
2017-05-31T05:26:20.564Z,18.13
2017-05-31T05:28:22.003Z,18.19
2017-05-31T05:30:24.134Z,18.19
2017-05-31T05:32:26.507Z,18.29
2017-05-31T05:34:28.631Z,18.37
2017-05-31T05:36:30.577Z,18.55
2017-05-31T05:38:32.097Z,18.77
2017-05-31T05:40:33.541Z,19.14
2017-05-31T05:42:35.699Z,19.42
2017-05-31T05:44:37.278Z,19.97
2017-05-31T05:46:38.819Z,20.49
2017-05-31T05:48:40.236Z,20.98
2017-05-31T05:50:41.797Z,20.96
2017-05-31T05:52:43.248Z,21.34
2017-05-31T05:54:44.789Z,21.63
2017-05-31T05:56:47.149Z,21.75
2017-05-31T05:58:48.788Z,22.19
2017-05-31T06:00:50.300Z,23.20
2017-05-31T06:02:51.861Z,24.04
2017-05-31T06:04:53.383Z,24.97
2017-05-31T06:06:54.889Z,25.79
2017-05-31T06:08:56.401Z,26.59
2017-05-31T06:10:57.948Z,27.70
2017-05-31T06:12:59.449Z,28.29
2017-05-31T06:15:01.028Z,28.97
2017-05-31T06:17:03.379Z,29.11
2017-05-31T06:19:04.914Z,29.10
2017-05-31T06:21:06.441Z,28.82
2017-05-31T06:23:08.004Z,28.23
2017-05-31T06:25:09.593Z,28.10
2017-05-31T06:27:11.113Z,28.82
2017-05-31T06:29:12.669Z,29.19
2017-05-31T06:31:15.190Z,29.31
2017-05-31T06:33:17.119Z,29.87
2017-05-31T06:35:18.976Z,29.94
2017-05-31T06:37:21.470Z,29.81
2017-05-31T06:39:23.367Z,30.50
2017-05-31T06:41:24.918Z,30.93
2017-05-31T06:43:26.471Z,31.06
2017-05-31T06:45:27.965Z,31.02
2017-05-31T06:47:29.568Z,31.36
2017-05-31T06:49:31.294Z,31.98
2017-05-31T06:51:32.880Z,31.99
2017-05-31T06:53:34.388Z,31.84
2017-05-31T06:55:36.112Z,31.21
2017-05-31T06:57:37.646Z,31.54
2017-05-31T06:59:39.157Z,31.49
2017-05-31T07:01:40.689Z,31.33
2017-05-31T07:03:42.208Z,31.38
2017-05-31T07:05:44.602Z,31.68
2017-05-31T07:07:46.931Z,31.20
2017-05-31T07:09:49.468Z,30.90
2017-05-31T07:11:51.768Z,31.13
2017-05-31T07:13:53.673Z,30.81
2017-05-31T07:15:55.190Z,30.03
2017-05-31T07:17:56.776Z,29.86
2017-05-31T07:19:59.278Z,29.33
2017-05-31T07:22:01.150Z,28.69
2017-05-31T07:24:02.629Z,28.50
2017-05-31T07:26:04.147Z,28.40
2017-05-31T07:28:05.740Z,27.96
2017-05-31T07:30:08.142Z,27.36
2017-05-31T07:32:09.687Z,26.81
2017-05-31T07:34:11.264Z,25.83
2017-05-31T07:36:13.625Z,24.97
2017-05-31T07:38:15.640Z,24.47
2017-05-31T07:40:17.154Z,24.08
2017-05-31T07:42:19.381Z,23.67
2017-05-31T07:44:20.915Z,23.42
2017-05-31T07:46:22.386Z,23.49
2017-05-31T07:48:23.964Z,23.26
2017-05-31T07:50:26.052Z,23.23
2017-05-31T07:52:28.360Z,23.19
2017-05-31T07:54:30.171Z,23.22
2017-05-31T07:56:32.057Z,23.24
2017-05-31T07:58:34.305Z,23.39
2017-05-31T08:00:36.697Z,23.29
2017-05-31T08:02:38.278Z,23.22
2017-05-31T08:04:39.753Z,23.17
2017-05-31T08:06:41.561Z,22.99
2017-05-31T08:08:43.047Z,22.82
2017-05-31T08:10:44.574Z,22.82
2017-05-31T08:12:46.091Z,22.86
2017-05-31T08:14:48.296Z,22.82
2017-05-31T08:16:50.509Z,23.07
2017-05-31T08:18:52.785Z,23.14
2017-05-31T08:20:55.038Z,23.14
2017-05-31T08:22:56.754Z,23.05
2017-05-31T08:24:58.403Z,22.80
2017-05-31T08:26:59.994Z,22.68
2017-05-31T08:29:01.640Z,22.80
2017-05-31T08:31:03.295Z,23.02
2017-05-31T08:33:04.820Z,23.26
2017-05-31T08:35:06.570Z,23.22
2017-05-31T08:37:08.297Z,23.11
2017-05-31T08:39:09.973Z,22.97
2017-05-31T08:41:11.534Z,22.74
2017-05-31T08:43:13.173Z,22.54
2017-05-31T08:45:14.734Z,22.44
2017-05-31T08:47:16.322Z,22.17
2017-05-31T08:49:18.624Z,22.07
2017-05-31T08:51:20.532Z,22.22
2017-05-31T08:53:22.911Z,22.57
2017-05-31T08:55:24.821Z,23.02
2017-05-31T08:57:26.335Z,23.22
2017-05-31T08:59:27.837Z,23.01
2017-05-31T09:01:29.409Z,22.99
2017-05-31T09:03:30.913Z,23.38
2017-05-31T09:05:32.483Z,23.65
2017-05-31T09:07:34.660Z,23.97
2017-05-31T09:09:36.245Z,24.38
2017-05-31T09:11:38.166Z,24.64
2017-05-31T09:13:39.716Z,24.79
2017-05-31T09:15:42.026Z,24.94
2017-05-31T09:17:43.538Z,24.91
2017-05-31T09:19:45.276Z,24.85
2017-05-31T09:21:46.801Z,24.69
2017-05-31T09:23:48.432Z,24.38
2017-05-31T09:25:49.906Z,24.29
2017-05-31T09:27:51.398Z,24.37
2017-05-31T09:29:52.939Z,24.32
2017-05-31T09:31:54.440Z,24.20
2017-05-31T09:33:56.633Z,24.08
2017-05-31T09:35:58.155Z,24.37
2017-05-31T09:38:00.274Z,24.63
2017-05-31T09:40:02.563Z,24.80
2017-05-31T09:42:04.731Z,25.12
2017-05-31T09:44:06.361Z,25.00
2017-05-31T09:46:08.419Z,25.22
2017-05-31T09:48:10.377Z,25.20
2017-05-31T09:50:12.493Z,25.47
2017-05-31T09:52:14.633Z,25.68
2017-05-31T09:54:16.849Z,25.74
2017-05-31T09:56:18.682Z,25.71
2017-05-31T09:58:20.831Z,25.72
2017-05-31T10:00:22.396Z,25.89
2017-05-31T10:02:23.905Z,26.28
2017-05-31T10:04:25.461Z,26.55
2017-05-31T10:06:27.678Z,26.87
2017-05-31T10:08:29.462Z,26.92
2017-05-31T10:10:31.879Z,26.87
2017-05-31T10:12:33.801Z,26.44
2017-05-31T10:14:36.105Z,26.08
2017-05-31T10:16:37.621Z,26.18
2017-05-31T10:18:39.116Z,26.18
2017-05-31T10:20:40.727Z,26.29
2017-05-31T10:22:42.240Z,26.46
2017-05-31T10:24:43.697Z,26.28
2017-05-31T10:26:45.200Z,26.18
2017-05-31T10:28:46.675Z,25.74
2017-05-31T10:30:48.227Z,25.84
2017-05-31T10:32:50.029Z,25.99
2017-05-31T10:34:52.362Z,25.98
2017-05-31T10:36:53.889Z,25.75
2017-05-31T10:38:55.493Z,25.50
2017-05-31T10:40:56.975Z,25.34
2017-05-31T10:42:58.483Z,25.07
2017-05-31T10:44:59.972Z,25.02
2017-05-31T10:47:01.453Z,24.90
2017-05-31T10:49:03.565Z,24.73
2017-05-31T10:51:05.086Z,24.64
2017-05-31T10:53:06.669Z,24.52
2017-05-31T10:55:08.579Z,24.34
2017-05-31T10:57:10.471Z,24.37
2017-05-31T10:59:12.740Z,24.32
2017-05-31T11:01:14.938Z,24.26
2017-05-31T11:03:16.894Z,24.32
2017-05-31T11:05:18.781Z,24.31
2017-05-31T11:07:20.266Z,24.67
2017-05-31T11:09:22.419Z,25.00
2017-05-31T11:11:24.676Z,25.44
2017-05-31T11:13:26.808Z,25.72
2017-05-31T11:15:28.650Z,26.17
2017-05-31T11:17:30.413Z,26.37
2017-05-31T11:19:31.982Z,26.64
2017-05-31T11:21:34.259Z,26.73
2017-05-31T11:23:35.750Z,26.94
2017-05-31T11:25:38.242Z,26.74
2017-05-31T11:27:40.869Z,26.52
2017-05-31T11:29:42.420Z,26.42
2017-05-31T11:31:43.924Z,25.98
2017-05-31T11:33:45.475Z,25.84
2017-05-31T11:35:47.041Z,25.62
2017-05-31T11:37:48.832Z,25.47
2017-05-31T11:39:50.350Z,25.67
2017-05-31T11:41:51.827Z,25.83
2017-05-31T11:43:53.616Z,26.21
2017-05-31T11:45:55.481Z,26.49
2017-05-31T11:47:56.981Z,26.27
2017-05-31T11:49:58.625Z,25.93
2017-05-31T11:52:00.159Z,25.71
2017-05-31T11:54:01.690Z,25.56
2017-05-31T11:56:03.186Z,25.17
2017-05-31T11:58:04.773Z,25.00
2017-05-31T12:00:06.712Z,25.00
2017-05-31T12:02:08.219Z,25.00
2017-05-31T12:04:10.438Z,24.92
2017-05-31T12:06:12.817Z,24.82
2017-05-31T12:08:14.382Z,24.82
2017-05-31T12:10:16.601Z,24.69
2017-05-31T12:12:18.493Z,24.63
2017-05-31T12:14:20.034Z,24.67
2017-05-31T12:16:21.507Z,24.52
2017-05-31T12:18:22.961Z,24.47
2017-05-31T12:20:24.451Z,24.47
2017-05-31T12:22:25.973Z,24.45
2017-05-31T12:24:28.310Z,24.37
2017-05-31T12:26:29.688Z,24.45
2017-05-31T12:28:31.357Z,24.50
2017-05-31T12:30:33.138Z,24.56
2017-05-31T12:32:34.638Z,24.57
2017-05-31T12:34:36.754Z,24.57
2017-05-31T12:36:38.284Z,24.54
2017-05-31T12:38:39.753Z,24.64
2017-05-31T12:40:41.314Z,24.68
2017-05-31T12:42:43.030Z,24.68
2017-05-31T12:44:44.499Z,24.77
2017-05-31T12:46:46.036Z,24.76
2017-05-31T12:48:47.902Z,24.80
2017-05-31T12:50:49.481Z,24.63
2017-05-31T12:52:51.043Z,24.49
2017-05-31T12:54:53.412Z,24.38
2017-05-31T12:56:54.914Z,24.50
2017-05-31T12:58:57.068Z,24.52
2017-05-31T13:00:58.618Z,24.57
2017-05-31T13:03:00.102Z,24.68
2017-05-31T13:05:01.739Z,24.75
2017-05-31T13:07:03.330Z,24.87
2017-05-31T13:09:04.799Z,24.87
2017-05-31T13:11:06.512Z,25.19
2017-05-31T13:13:08.027Z,25.22
2017-05-31T13:15:09.514Z,25.27
2017-05-31T13:17:12.265Z,25.22
2017-05-31T13:19:13.793Z,25.19
2017-05-31T13:21:16.150Z,25.16
2017-05-31T13:23:18.409Z,25.07
2017-05-31T13:25:20.181Z,25.07
2017-05-31T13:27:22.594Z,24.98
2017-05-31T13:29:24.562Z,24.90
2017-05-31T13:31:26.081Z,24.90
2017-05-31T13:33:27.581Z,24.87
2017-05-31T13:35:29.087Z,24.76
2017-05-31T13:37:30.561Z,24.79
2017-05-31T13:39:32.050Z,24.68
2017-05-31T13:41:33.602Z,24.67
2017-05-31T13:43:35.230Z,24.50
2017-05-31T13:45:36.746Z,24.47
2017-05-31T13:47:38.337Z,24.49
2017-05-31T13:49:39.829Z,24.47
2017-05-31T13:51:41.393Z,24.29
2017-05-31T13:53:42.859Z,24.27
2017-05-31T13:55:44.340Z,24.23
2017-05-31T13:57:45.886Z,24.26
2017-05-31T13:59:47.369Z,24.24
2017-05-31T14:01:49.179Z,24.20
2017-05-31T14:03:51.047Z,24.20
2017-05-31T14:05:52.531Z,24.12
2017-05-31T14:07:53.993Z,24.16
2017-05-31T14:09:55.541Z,24.35
2017-05-31T14:11:57.158Z,24.34
2017-05-31T14:13:58.653Z,24.45
2017-05-31T14:16:00.118Z,24.59
2017-05-31T14:18:02.392Z,24.88
2017-05-31T14:20:07.107Z,25.20
2017-05-31T14:22:09.037Z,25.46
2017-05-31T14:24:11.093Z,25.74
2017-05-31T14:26:13.011Z,25.67
2017-05-31T14:28:15.292Z,25.37
2017-05-31T14:30:16.763Z,25.31
2017-05-31T14:32:18.237Z,25.46
2017-05-31T14:34:19.747Z,25.54
2017-05-31T14:36:21.244Z,25.50
2017-05-31T14:38:22.757Z,25.62
2017-05-31T14:40:24.239Z,25.68
2017-05-31T14:42:25.765Z,25.69
2017-05-31T14:44:27.839Z,25.65
2017-05-31T14:46:29.653Z,25.59
2017-05-31T14:48:31.131Z,25.62
2017-05-31T14:50:32.740Z,25.67
2017-05-31T14:52:34.242Z,25.72
2017-05-31T14:54:36.772Z,25.77
2017-05-31T14:56:38.264Z,25.72
2017-05-31T14:58:40.725Z,25.71
2017-05-31T15:00:42.178Z,25.74
2017-05-31T15:02:43.658Z,25.69
2017-05-31T15:04:45.166Z,25.67
2017-05-31T15:06:46.638Z,25.47
2017-05-31T15:08:48.877Z,25.10
2017-05-31T15:10:50.495Z,24.92
2017-05-31T15:12:51.977Z,24.98
2017-05-31T15:14:53.435Z,25.00
2017-05-31T15:16:54.919Z,25.01
2017-05-31T15:18:56.454Z,25.16
2017-05-31T15:20:57.942Z,25.19
2017-05-31T15:22:59.487Z,25.37
2017-05-31T15:25:01.088Z,25.43
2017-05-31T15:27:02.563Z,25.50
2017-05-31T15:29:04.044Z,25.56
2017-05-31T15:31:05.529Z,25.61
2017-05-31T15:33:07.021Z,25.72
2017-05-31T15:35:08.550Z,25.75
2017-05-31T15:37:10.022Z,25.71
2017-05-31T15:39:12.352Z,25.52
2017-05-31T15:41:14.213Z,25.44
2017-05-31T15:43:15.710Z,25.57
2017-05-31T15:45:17.199Z,25.39
2017-05-31T15:47:18.661Z,25.42
2017-05-31T15:49:20.147Z,25.34
2017-05-31T15:51:22.433Z,25.47
2017-05-31T15:53:24.711Z,25.37
2017-05-31T15:55:26.902Z,25.31
2017-05-31T15:57:28.787Z,25.32
2017-05-31T15:59:31.276Z,25.31
2017-05-31T16:01:33.588Z,25.39
2017-05-31T16:03:36.063Z,25.35
2017-05-31T16:05:38.559Z,25.25
2017-05-31T16:07:40.073Z,25.31
2017-05-31T16:09:42.346Z,25.19
2017-05-31T16:11:44.263Z,25.30
2017-05-31T16:13:46.184Z,25.34
2017-05-31T16:15:47.646Z,25.37
2017-05-31T16:17:49.119Z,25.39
2017-05-31T16:19:50.577Z,25.19
2017-05-31T16:21:52.017Z,25.22
2017-05-31T16:23:54.321Z,25.12
2017-05-31T16:25:55.887Z,25.13
2017-05-31T16:27:57.523Z,25.02
2017-05-31T16:29:59.086Z,24.90
2017-05-31T16:32:01.325Z,24.95
2017-05-31T16:34:03.566Z,24.87
2017-05-31T16:36:05.573Z,24.91
2017-05-31T16:38:07.433Z,24.97
2017-05-31T16:40:08.918Z,25.00
2017-05-31T16:42:10.367Z,25.02
2017-05-31T16:44:11.830Z,25.00
2017-05-31T16:46:13.664Z,24.98
2017-05-31T16:48:15.590Z,25.02
2017-05-31T16:50:17.059Z,25.01
2017-05-31T16:52:18.552Z,24.95
2017-05-31T16:54:20.024Z,25.00
2017-05-31T16:56:21.558Z,24.97
2017-05-31T16:58:23.081Z,24.87
2017-05-31T17:00:25.348Z,24.83
2017-05-31T17:02:26.893Z,24.87
2017-05-31T17:04:28.483Z,24.83
2017-05-31T17:06:29.979Z,24.87
2017-05-31T17:08:31.507Z,24.76
2017-05-31T17:10:33.176Z,24.91
2017-05-31T17:12:34.738Z,24.91
2017-05-31T17:14:36.185Z,24.85
2017-05-31T17:16:38.513Z,24.82
2017-05-31T17:18:39.986Z,24.79
2017-05-31T17:20:41.436Z,24.75
2017-05-31T17:22:42.874Z,24.64
2017-05-31T17:24:44.311Z,24.67
2017-05-31T17:26:46.572Z,24.69
2017-05-31T17:28:48.325Z,24.63
2017-05-31T17:30:50.198Z,24.64
2017-05-31T17:32:52.565Z,24.67
2017-05-31T17:34:54.092Z,24.63
2017-05-31T17:36:56.240Z,24.50
2017-05-31T17:38:57.698Z,24.44
2017-05-31T17:40:59.202Z,24.35
2017-05-31T17:43:00.772Z,24.34
2017-05-31T17:45:03.119Z,24.14
2017-05-31T17:47:04.679Z,24.14
2017-05-31T17:49:06.134Z,24.01
2017-05-31T17:51:07.688Z,24.07
2017-05-31T17:53:09.155Z,24.02
2017-05-31T17:55:11.215Z,23.94
2017-05-31T17:57:12.701Z,23.94
2017-05-31T17:59:15.019Z,23.83
2017-05-31T18:01:17.308Z,23.90
2017-05-31T18:03:18.830Z,23.87
2017-05-31T18:05:20.293Z,23.83
2017-05-31T18:07:21.901Z,23.75
2017-05-31T18:09:23.376Z,23.70
2017-05-31T18:11:25.538Z,23.72
2017-05-31T18:13:27.462Z,23.77
2017-05-31T18:15:28.989Z,23.76
2017-05-31T18:17:31.246Z,23.67
2017-05-31T18:19:33.518Z,23.67
2017-05-31T18:21:35.089Z,23.64
2017-05-31T18:23:37.313Z,23.53
2017-05-31T18:25:39.423Z,23.47
2017-05-31T18:27:40.895Z,23.64
2017-05-31T18:29:43.256Z,23.57
2017-05-31T18:31:44.765Z,23.46
2017-05-31T18:33:46.323Z,23.39
2017-05-31T18:35:47.809Z,23.34
2017-05-31T18:37:49.275Z,23.31
2017-05-31T18:39:50.770Z,23.17
2017-05-31T18:41:52.222Z,23.12
2017-05-31T18:43:53.735Z,23.02
2017-05-31T18:45:55.221Z,23.07
2017-05-31T18:47:57.430Z,22.97
2017-05-31T18:49:58.897Z,22.90
2017-05-31T18:52:00.397Z,22.84
2017-05-31T18:54:02.110Z,22.77
2017-05-31T18:56:03.592Z,22.78
2017-05-31T18:58:05.057Z,22.75
2017-05-31T19:00:07.341Z,22.64
2017-05-31T19:02:09.576Z,22.60
2017-05-31T19:04:11.093Z,22.53
2017-05-31T19:06:12.563Z,22.44
2017-05-31T19:08:14.056Z,22.38
2017-05-31T19:10:15.520Z,22.39
2017-05-31T19:12:16.994Z,22.28
2017-05-31T19:14:19.054Z,22.29
2017-05-31T19:16:21.287Z,22.25
2017-05-31T19:18:22.840Z,22.29
2017-05-31T19:20:24.977Z,22.23
2017-05-31T19:22:26.414Z,22.16
2017-05-31T19:24:28.391Z,22.07
2017-05-31T19:26:29.911Z,22.01
2017-05-31T19:28:31.804Z,21.97
2017-05-31T19:30:33.948Z,21.82
2017-05-31T19:32:36.145Z,21.90
2017-05-31T19:34:37.567Z,21.79
2017-05-31T19:36:39.007Z,21.85
2017-05-31T19:38:40.492Z,21.72
2017-05-31T19:40:41.943Z,21.71
2017-05-31T19:42:43.477Z,21.69
2017-05-31T19:44:45.446Z,21.59
2017-05-31T19:46:47.288Z,21.57
2017-05-31T19:48:48.843Z,21.57
2017-05-31T19:50:50.730Z,21.45
2017-05-31T19:52:52.186Z,21.44
2017-05-31T19:54:53.675Z,21.38
2017-05-31T19:56:55.153Z,21.20
2017-05-31T19:58:57.158Z,21.23
2017-05-31T20:00:58.663Z,21.14
2017-05-31T20:03:00.122Z,21.17
2017-05-31T20:05:01.689Z,21.09
2017-05-31T20:07:03.895Z,21.05
2017-05-31T20:09:05.361Z,20.89
2017-05-31T20:11:06.819Z,20.89
2017-05-31T20:13:08.408Z,20.93
2017-05-31T20:15:09.869Z,20.91
2017-05-31T20:17:11.475Z,20.81
2017-05-31T20:19:13.023Z,20.84
2017-05-31T20:21:14.585Z,20.71
2017-05-31T20:23:16.699Z,20.72
2017-05-31T20:25:18.202Z,20.68
2017-05-31T20:27:19.784Z,20.69
2017-05-31T20:29:21.962Z,20.53
2017-05-31T20:31:23.947Z,20.56
2017-05-31T20:33:25.417Z,20.54
2017-05-31T20:35:27.128Z,20.42
2017-05-31T20:37:28.652Z,20.33
2017-05-31T20:39:30.215Z,20.18
2017-05-31T20:41:32.204Z,20.12
2017-05-31T20:43:33.680Z,19.98
2017-05-31T20:45:35.729Z,19.86
2017-05-31T20:47:37.180Z,19.87
2017-05-31T20:49:38.664Z,19.87
2017-05-31T20:51:40.816Z,19.90
2017-05-31T20:53:42.303Z,19.84
2017-05-31T20:55:44.313Z,19.83
2017-05-31T20:57:45.798Z,19.68
2017-05-31T20:59:47.286Z,19.61
2017-05-31T21:01:48.887Z,19.60
2017-05-31T21:03:50.327Z,19.60
2017-05-31T21:05:51.795Z,19.58
2017-05-31T21:07:53.917Z,19.43
2017-05-31T21:09:55.515Z,19.40
2017-05-31T21:11:57.001Z,19.33
2017-05-31T21:13:59.014Z,19.28
2017-05-31T21:16:00.484Z,19.24
2017-05-31T21:18:02.468Z,19.24
2017-05-31T21:20:04.369Z,19.21
2017-05-31T21:22:05.834Z,19.18
2017-05-31T21:24:07.337Z,19.11
2017-05-31T21:26:08.814Z,19.06
2017-05-31T21:28:10.751Z,19.08
2017-05-31T21:30:12.186Z,19.05
2017-05-31T21:32:13.728Z,19.10
2017-05-31T21:34:15.647Z,19.01
2017-05-31T21:36:17.139Z,18.94
2017-05-31T21:38:18.713Z,18.84
2017-05-31T21:40:20.828Z,18.67
2017-05-31T21:42:22.915Z,18.73
2017-05-31T21:44:24.915Z,18.72
2017-05-31T21:46:26.397Z,18.73
2017-05-31T21:48:28.337Z,18.62
2017-05-31T21:50:29.935Z,18.62
2017-05-31T21:52:31.419Z,18.62
2017-05-31T21:54:32.893Z,18.70
2017-05-31T21:56:34.462Z,18.59
2017-05-31T21:58:35.928Z,18.59
2017-05-31T22:00:37.522Z,18.52
2017-05-31T22:02:39.007Z,18.44
2017-05-31T22:04:40.470Z,18.40
2017-05-31T22:06:41.946Z,18.42
2017-05-31T22:08:43.538Z,18.37
2017-05-31T22:10:45.086Z,18.39
2017-05-31T22:12:46.562Z,18.29
2017-05-31T22:14:48.092Z,18.33
2017-05-31T22:16:49.739Z,18.25
2017-05-31T22:18:51.222Z,18.28
2017-05-31T22:20:52.739Z,18.21
2017-05-31T22:22:54.196Z,18.22
2017-05-31T22:24:56.153Z,18.21
2017-05-31T22:26:57.653Z,18.19
2017-05-31T22:28:59.406Z,18.17
2017-05-31T22:31:01.387Z,17.97
2017-05-31T22:33:02.886Z,17.97
2017-05-31T22:35:04.900Z,17.92
2017-05-31T22:37:06.328Z,17.92
2017-05-31T22:39:07.798Z,17.88
2017-05-31T22:41:09.257Z,17.79
2017-05-31T22:43:10.742Z,17.76
2017-05-31T22:45:12.203Z,17.76
2017-05-31T22:47:14.088Z,17.79
2017-05-31T22:49:15.609Z,17.73
2017-05-31T22:51:17.186Z,17.78
2017-05-31T22:53:18.801Z,17.76
2017-05-31T22:55:20.260Z,17.76
2017-05-31T22:57:21.678Z,17.63
2017-05-31T22:59:23.533Z,17.53
2017-05-31T23:01:24.974Z,17.51
2017-05-31T23:03:26.917Z,17.53
2017-05-31T23:05:28.353Z,17.41
2017-05-31T23:07:29.804Z,17.40
2017-05-31T23:09:31.232Z,17.38
2017-05-31T23:11:32.670Z,17.29
2017-05-31T23:13:34.127Z,17.26
2017-05-31T23:15:35.558Z,17.17
2017-05-31T23:17:36.986Z,17.11
2017-05-31T23:19:38.414Z,17.03
2017-05-31T23:21:39.842Z,17.07
2017-05-31T23:23:41.269Z,17.03
2017-05-31T23:25:43.131Z,16.89
2017-05-31T23:27:45.097Z,16.88
2017-05-31T23:29:47.116Z,16.90
2017-05-31T23:31:48.593Z,16.83
2017-05-31T23:33:50.025Z,16.75
2017-05-31T23:35:51.960Z,16.71
2017-05-31T23:37:53.401Z,16.65
2017-05-31T23:39:55.046Z,16.63
2017-05-31T23:41:56.527Z,16.59
2017-05-31T23:43:58.398Z,16.58
2017-05-31T23:46:00.513Z,16.49
2017-05-31T23:48:02.600Z,16.48
2017-05-31T23:50:04.702Z,16.49
2017-05-31T23:52:06.769Z,16.44
2017-05-31T23:54:08.269Z,16.41
2017-05-31T23:56:09.744Z,16.41
2017-05-31T23:58:11.564Z,16.40
